Latest Weather Observations for Yunta

IDS60801

Issued at 3:35 pm CST Tuesday 23 September 2014 (issued every 30 minutes, with the page automatically refreshed every 10 minutes)

About weather observations | Map of weather stations | Latest weather observations for SA | Other Formats
Station Details ID: 020062 Name: YUNTA AIRSTRIP Lat: -32.57 Lon: 139.56 Height: 300.0 m
Data from the previous 72 hours. | See also: Recent months at Yunta
Date/Time
CST
Temp
°C
App
Temp
°C
Dew
Point
Rel
Hum
%
Delta-T
°C
Wind Press
QNH
hPa
Press
MSL
hPa
Rain
since 9 am
mm
Dir
 
Spd
km/h
Gust
km/h
Spd
kts
Gust
kts
23/03:30pm 21.9 19.1 10.1 47 6.5 NE 15 33 8 18 1015.9 1015.6 0.2
23/03:15pm 22.3 16.1 7.7 39 7.7 NE 30 44 16 24 1015.9 1015.6 0.0
23/03:00pm 23.7 19.7 5.1 30 9.4 N 15 24 8 13 1016.0 1015.7 0.0
23/02:30pm 23.5 18.7 5.4 31 9.2 NNE 20 30 11 16 1016.4 1016.1 0.0
23/02:00pm 22.9 18.0 5.3 32 8.9 NNE 20 33 11 18 1016.7 1016.4 0.0
23/01:30pm 24.0 18.0 5.4 30 9.5 NNE 26 35 14 19 1017.0 1016.7 0.0
23/01:00pm 24.6 18.5 6.4 31 9.5 N 28 37 15 20 1017.5 1017.2 0.0
23/12:30pm 24.2 18.9 6.9 33 9.1 N 24 39 13 21 1017.9 1017.6 0.0
23/12:00pm 22.6 16.9 6.8 36 8.2 NNE 26 37 14 20 1018.6 1018.4 0.0
23/11:30am 21.9 16.7 7.3 39 7.6 NNE 24 35 13 19 1019.1 1018.8 0.0
23/11:00am 21.7 16.7 7.9 41 7.3 N 24 41 13 22 1019.7 1019.4 0.0
23/10:30am 21.6 16.3 8.5 43 7.0 N 26 35 14 19 1020.2 1019.9 0.0
23/10:00am 20.9 16.0 8.5 45 6.6 NNE 24 37 13 20 1020.3 1020.0 0.0
23/09:30am 19.7 14.3 8.1 47 6.1 N 26 41 14 22 1020.5 1020.2 0.0
23/09:00am 19.3 14.0 8.3 49 5.8 NNE 26 35 14 19 1020.8 1020.5 0.0
23/08:30am 19.1 13.5 8.7 51 5.5 NNE 28 41 15 22 1021.0 1020.7 0.0
23/08:00am 17.9 11.8 8.2 53 5.0 NNE 30 43 16 23 1021.2 1020.9 0.0
23/07:30am 17.2 11.1 8.1 55 4.7 NE 30 44 16 24 1021.4 1021.1 0.0
23/07:00am 16.4 10.2 7.9 57 4.4 NNE 30 41 16 22 1021.3 1021.0 0.0
23/06:30am 15.7 9.8 7.7 59 4.0 NNE 28 37 15 20 1021.0 1020.7 0.0
23/06:00am 15.3 9.9 7.8 61 3.8 NE 26 39 14 21 1021.0 1020.7 0.0
23/05:30am 14.3 10.4 7.1 62 3.6 NE 17 24 9 13 1021.0 1020.7 0.0
23/05:00am 14.5 10.2 7.1 61 3.7 NE 19 24 10 13 1021.0 1020.7 0.0
23/04:30am 15.3 11.5 7.6 60 3.9 NE 17 32 9 17 1021.0 1020.7 0.0
23/04:00am 14.8 11.5 6.6 58 4.0 NE 13 20 7 11 1021.1 1020.8 0.0
23/03:30am 14.5 10.8 6.3 58 4.0 ENE 15 19 8 10 1021.0 1020.7 0.0
23/03:00am 15.9 11.5 6.6 54 4.6 NE 19 32 10 17 1021.0 1020.7 0.0
23/02:30am 14.1 9.7 4.9 54 4.3 ENE 17 22 9 12 1021.3 1021.0 0.0
23/02:00am 13.8 9.5 3.3 49 4.8 ENE 15 19 8 10 1021.5 1021.3 0.0
23/01:30am 14.5 9.8 3.3 47 5.1 ENE 17 22 9 12 1021.8 1021.6 0.0
23/01:00am 13.6 9.2 0.6 41 5.6 ENE 13 17 7 9 1022.2 1022.0 0.0
23/12:30am 15.7 11.4 3.5 44 5.7 NE 15 20 8 11 1022.7 1022.4 0.0
23/12:00am 13.7 8.9 -2.3 33 6.4 ENE 13 17 7 9 1022.9 1022.6 0.0
 
Date/Time
CST
Temp
°C
App
Temp
°C
Dew
Point
Rel
Hum
%
Delta-T
°C
Wind Press
QNH
hPa
Press
MSL
hPa
Rain
since 9 am
mm
Dir
 
Spd
km/h
Gust
km/h
Spd
kts
Gust
kts
22/11:30pm 13.9 9.0 -3.4 30 6.8 ENE 13 15 7 8 1022.8 1022.5 0.0
22/11:00pm 13.6 9.0 -4.1 29 6.9 ENE 11 15 6 8 1022.8 1022.5 0.0
22/10:30pm 14.3 9.7 -4.4 27 7.2 ENE 11 13 6 7 1022.7 1022.4 0.0
22/10:00pm 15.8 10.4 -4.7 24 8.0 ENE 15 19 8 10 1022.7 1022.4 0.0
22/09:30pm 16.2 10.4 -4.9 23 8.2 NE 17 22 9 12 1022.6 1022.3 0.0
22/09:00pm 16.2 11.1 -5.5 22 8.3 ENE 13 17 7 9 1022.7 1022.4 0.0
22/08:30pm 15.7 11.4 -5.3 23 8.1 ENE 9 13 5 7 1022.5 1022.2 0.0
22/08:00pm 15.3 11.3 -5.7 23 8.0 ENE 7 11 4 6 1022.1 1021.9 0.0
22/07:30pm 16.5 12.1 -5.9 21 8.6 NE 9 11 5 6 1021.9 1021.7 0.0
22/07:00pm 18.8 14.0 -6.0 18 9.7 ENE 11 13 6 7 1021.5 1021.3 0.0
22/06:30pm 21.2 15.6 -6.4 15 11.0 NE 15 22 8 12 1021.4 1021.1 0.0
22/06:00pm 22.6 16.2 -7.2 13 11.8 ENE 19 24 10 13 1021.1 1020.8 0.0
22/05:30pm 23.9 17.6 -6.2 13 12.4 NE 19 28 10 15 1020.8 1020.5 0.0
22/05:00pm 24.9 18.5 -6.4 12 13.0 ENE 19 30 10 16 1020.6 1020.3 0.0
22/04:30pm 25.2 18.7 -6.2 12 13.0 NE 20 32 11 17 1020.7 1020.4 0.0
22/04:00pm 25.8 19.3 -5.7 12 13.3 ENE 20 32 11 17 1020.7 1020.4 0.0
22/03:30pm 25.1 18.7 -5.2 13 12.8 NNE 20 32 11 17 1020.8 1020.5 0.0
22/03:00pm 25.7 19.5 -4.7 13 13.0 NE 19 32 10 17 1021.0 1020.7 0.0
22/02:30pm 25.7 19.3 -4.7 13 13.0 NNE 20 33 11 18 1021.2 1020.9 0.0
22/02:00pm 25.4 19.0 -5.0 13 13.0 NNE 20 35 11 19 1021.5 1021.3 0.0
22/01:30pm 25.7 19.4 -5.8 12 13.2 NE 19 33 10 18 1022.0 1021.8 0.0
22/01:00pm 25.0 18.7 -6.3 12 13.0 ENE 19 32 10 17 1022.5 1022.2 0.0
22/12:30pm 24.9 18.5 -5.4 13 12.7 NE 20 30 11 16 1023.1 1022.8 0.0
22/12:00pm 24.3 18.0 -5.8 13 12.5 NE 19 32 10 17 1023.6 1023.3 0.0
22/11:30am 23.6 17.1 -6.4 13 12.2 NE 20 26 11 14 1024.1 1023.8 0.0
22/11:00am 23.5 17.2 -5.5 14 12.1 NE 19 28 10 15 1024.7 1024.5 0.0
22/10:30am 23.7 18.3 -4.4 15 11.9 NNE 15 26 8 14 1025.2 1025.0 0.0
22/10:00am 22.9 16.1 -5.1 15 11.7 NE 22 33 12 18 1025.5 1025.3 0.0
22/09:30am 21.6 14.1 -4.5 17 10.8 ENE 26 35 14 19 1025.9 1025.7 0.0
22/09:00am 20.8 14.2 -3.0 20 10.1 ENE 22 33 12 18 1026.1 1025.8 0.0
22/08:30am 16.9 13.2 -3.2 25 8.2 SSE 7 11 4 6 1026.2 1025.9 0.0
22/08:00am 13.7 10.0 -4.5 28 7.0 SSE 6 9 3 5 1026.4 1026.1 0.0
22/07:30am 9.1 5.4 -4.4 38 4.9 SSW 6 6 3 3 1026.3 1026.0 0.0
22/07:29am 9.0 5.3 -4.2 39 4.8 SSW 6 6 3 3 1026.3 1026.0 0.0
22/07:00am 4.0 1.2 -6.8 45 3.5 CALM 0 0 0 0 1026.3 1026.0 0.0
22/06:30am 0.9 -2.0 -8.3 50 2.8 CALM 0 4 0 2 1026.1 1025.8 0.0
22/06:00am 0.5 -2.4 -7.7 54 2.5 CALM 0 4 0 2 1026.1 1025.8 0.0
22/05:30am 0.8 -2.8 -7.7 53 2.6 SW 4 6 2 3 1025.8 1025.6 0.0
22/05:00am 2.0 -2.1 -7.1 51 3.0 SW 7 9 4 5 1025.4 1025.2 0.0
22/04:30am 2.4 -1.5 -6.7 51 3.0 SSW 6 7 3 4 1025.1 1024.9 0.0
22/04:00am 2.6 -1.1 -8.1 45 3.4 SSE 4 6 2 3 1024.8 1024.6 0.0
22/03:30am 2.8 -0.8 -7.6 46 3.4 SE 4 6 2 3 1025.1 1024.9 0.0
22/03:00am 3.4 -0.6 -8.0 43 3.7 E 6 7 3 4 1025.2 1025.0 0.0
22/02:30am 3.5 -0.5 -7.9 43 3.7 E 6 7 3 4 1025.6 1025.4 0.0
22/02:00am 6.7 4.1 -5.0 43 4.1 CALM 0 4 0 2 1025.9 1025.7 0.0
22/01:30am 4.5 1.8 -6.4 45 3.5 CALM 0 0 0 0 1026.4 1026.1 0.0
22/01:00am 4.6 1.0 -7.2 42 3.8 ESE 4 4 2 2 1026.7 1026.4 0.0
22/12:30am 4.9 1.3 -7.5 40 3.9 SE 4 6 2 3 1027.0 1026.7 0.0
22/12:00am 6.1 2.2 -6.8 39 4.2 SSW 6 7 3 4 1027.3 1027.1 0.0
 
Date/Time
CST
Temp
°C
App
Temp
°C
Dew
Point
Rel
Hum
%
Delta-T
°C
Wind Press
QNH
hPa
Press
MSL
hPa
Rain
since 9 am
mm
Dir
 
Spd
km/h
Gust
km/h
Spd
kts
Gust
kts
21/11:30pm 7.2 4.5 -6.1 38 4.5 CALM 0 0 0 0 1027.2 1026.9 0.0
21/11:00pm 7.7 5.0 -6.0 37 4.7 CALM 0 0 0 0 1027.4 1027.2 0.0
21/10:30pm 9.7 7.0 -5.8 33 5.5 CALM 0 0 0 0 1027.4 1027.2 0.0
21/10:00pm 10.3 6.9 -5.6 32 5.7 NE 4 4 2 2 1027.2 1026.9 0.0
21/09:30pm 9.5 6.7 -7.2 30 5.7 CALM 0 0 0 0 1027.0 1026.7 0.0
21/09:00pm 10.8 7.7 -6.1 30 6.0 NNE 2 4 1 2 1026.9 1026.6 0.0
21/08:30pm 11.7 8.2 -6.6 27 6.5 NNE 4 6 2 3 1026.7 1026.4 0.0
21/08:00pm 13.0 10.0 -5.5 27 6.9 NE 2 6 1 3 1026.6 1026.3 0.0
21/07:30pm 14.2 10.2 -6.1 24 7.5 ESE 7 9 4 5 1026.3 1026.0 0.0
21/07:00pm 16.3 12.0 -4.8 23 8.3 SE 9 11 5 6 1026.3 1026.0 0.0
21/06:30pm 18.1 13.4 -5.2 20 9.2 SE 11 13 6 7 1025.8 1025.6 0.0
21/06:00pm 20.0 14.9 -5.0 18 10.1 SE 13 17 7 9 1025.4 1025.2 0.0
21/05:30pm 21.2 15.7 -5.6 16 10.8 ESE 15 22 8 12 1025.2 1025.0 0.0
21/05:00pm 22.0 17.1 -6.7 14 11.5 SE 11 17 6 9 1025.1 1024.9 0.0
21/04:30pm 22.2 17.0 -6.5 14 11.5 ESE 13 19 7 10 1025.1 1024.9 0.0
21/04:00pm 22.2 16.9 -7.5 13 11.7 SE 13 22 7 12 1025.2 1025.0 0.0
21/03:30pm 22.6 16.9 -7.2 13 11.8 ESE 15 19 8 10 1025.4 1025.2 0.0
21/03:00pm 21.7 16.4 -6.9 14 11.3 ESE 13 32 7 17 1025.9 1025.7 0.0
21/02:30pm 22.3 17.1 -6.5 14 11.5 SE 13 20 7 11 1026.2 1025.9 0.0
21/02:00pm 21.7 15.8 -6.0 15 11.2 SE 17 24 9 13 1026.6 1026.3 0.0
21/01:30pm 22.0 15.7 -5.8 15 11.3 SE 19 26 10 14 1027.1 1026.8 0.0
21/01:00pm 21.7 17.1 -4.4 17 10.9 SE 11 20 6 11 1027.4 1027.2 0.0
21/12:30pm 20.7 16.0 -5.2 17 10.5 ESE 11 19 6 10 1027.8 1027.6 0.0
21/12:00pm 20.1 14.3 -4.2 19 10.0 SE 17 26 9 14 1028.3 1028.1 0.0
21/11:30am 19.2 13.6 -3.0 22 9.2 SSE 17 26 9 14 1028.6 1028.4 0.0
21/11:00am 19.4 14.2 -2.8 22 9.4 ESE 15 20 8 11 1029.0 1028.8 0.0
21/10:30am 18.3 13.1 -2.6 24 8.7 ESE 15 28 8 15 1029.0 1028.8 0.0
21/10:00am 18.4 13.8 -1.4 26 8.5 ESE 13 24 7 13 1029.3 1029.1 0.0
21/09:30am 16.9 13.4 -1.2 29 7.7 SE 7 13 4 7 1029.8 1029.5 0.0
21/09:00am 15.5 12.1 -2.0 30 7.2 SSE 6 11 3 6 1030.0 1029.7 0.0
21/08:30am 14.3 11.2 -2.6 31 6.8 SSE 4 7 2 4 1029.9 1029.6 0.0
21/08:00am 11.8 8.3 -3.1 35 5.8 SSW 6 7 3 4 1029.7 1029.4 0.0
21/07:30am 9.3 6.5 -3.6 40 4.8 SW 2 7 1 4 1029.3 1029.1 0.0
21/07:00am 5.1 2.4 -6.4 43 3.8 CALM 0 4 0 2 1028.8 1028.6 0.0
21/06:30am 1.6 -1.3 -7.9 49 3.0 CALM 0 0 0 0 1028.3 1028.1 0.0
21/06:00am 0.7 -2.3 -8.8 49 2.8 CALM 0 0 0 0 1028.1 1027.9 0.0
21/05:30am 0.8 -2.1 -8.2 51 2.7 CALM 0 0 0 0 1027.9 1027.7 0.0
21/05:00am 1.4 -1.4 -7.4 52 2.8 CALM 0 0 0 0 1027.5 1027.3 0.0
21/04:30am 1.4 -1.5 -8.4 48 3.0 CALM 0 0 0 0 1027.2 1026.9 0.0
21/04:00am 2.0 -1.2 -7.6 49 3.1 W 2 4 1 2 1027.0 1026.7 0.0
21/03:30am 2.6 -1.0 -7.6 47 3.3 W 4 6 2 3 1027.0 1026.7 0.0
21/03:00am 2.9 -1.3 -7.3 47 3.3 W 7 11 4 6 1026.9 1026.6 0.0
21/02:30am 3.6 0.7 -8.1 42 3.6 CALM 0 0 0 0 1026.9 1026.6 0.0
21/02:00am 4.8 2.0 -7.0 42 3.8 CALM 0 0 0 0 1027.0 1026.7 0.0
21/01:30am 4.9 2.1 -6.9 42 3.8 CALM 0 0 0 0 1027.2 1026.9 0.0
21/01:00am 6.1 2.0 -6.8 39 4.3 W 7 9 4 5 1027.3 1027.1 0.0
21/12:30am 6.8 2.9 -6.8 37 4.5 W 6 7 3 4 1027.5 1027.3 0.0
21/12:00am 6.1 1.9 -7.8 36 4.4 SW 7 9 4 5 1027.6 1027.4 0.0
 
Date/Time
CST
Temp
°C
App
Temp
°C
Dew
Point
Rel
Hum
%
Delta-T
°C
Wind Press
QNH
hPa
Press
MSL
hPa
Rain
since 9 am
mm
Dir
 
Spd
km/h
Gust
km/h
Spd
kts
Gust
kts
20/11:30pm 6.8 3.9 -7.9 34 4.7 CALM 0 0 0 0 1027.5 1027.3 0.0
20/11:00pm 7.4 4.1 -7.8 33 5.0 W 2 6 1 3 1027.5 1027.3 0.0
20/10:30pm 7.9 4.6 -8.2 31 5.2 NW 2 6 1 3 1027.5 1027.3 0.0
20/10:00pm 7.7 4.8 -8.3 31 5.2 CALM 0 2 0 1 1027.2 1026.9 0.0
20/09:30pm 8.3 5.4 -8.2 30 5.4 CALM 0 0 0 0 1027.0 1026.7 0.0
20/09:00pm 9.3 6.0 -8.2 28 5.8 N 2 4 1 2 1026.6 1026.3 0.0
20/08:30pm 11.5 7.9 -7.8 25 6.7 NE 4 6 2 3 1026.4 1026.1 0.0
20/08:00pm 11.7 7.7 -7.6 25 6.7 E 6 7 3 4 1026.1 1025.8 0.0
20/07:30pm 14.3 9.7 -7.7 21 7.9 ESE 9 11 5 6 1025.6 1025.4 0.0
20/07:00pm 16.1 11.2 -6.8 20 8.6 ESE 11 13 6 7 1025.2 1025.0 0.0
20/06:30pm 17.4 12.6 -6.4 19 9.1 SE 11 15 6 8 1024.7 1024.5 0.0
20/06:00pm 19.1 13.9 -5.7 18 9.8 SE 13 19 7 10 1024.4 1024.2 0.0
20/05:30pm 20.3 15.9 -6.3 16 10.5 ESE 9 15 5 8 1024.1 1023.8 0.0
20/05:00pm 21.0 15.8 -6.6 15 11.0 ESE 13 24 7 13 1023.6 1023.3 0.0
20/04:30pm 21.1 15.9 -6.5 15 10.9 SE 13 20 7 11 1023.4 1023.1 0.0
20/04:00pm 22.3 18.3 -5.6 15 11.4 SE 7 20 4 11 1023.1 1022.8 0.0

Other Formats:

Comma delimited format used in spreadsheet applications
http://www.bom.gov.au/fwo/IDS60801/IDS60801.94684.axf

JavaScript Object Notation format (JSON) in row-major order
http://www.bom.gov.au/fwo/IDS60801/IDS60801.94684.json